<?xml version="1.0" encoding="UTF-8" standalone="no" ?>
<gpx xmlns="http://www.topografix.com/GPX/1/1" xmlns:xsi="http://www.w3.org/2001/XMLSchema-instance" xsi:schemaLocation="http://www.topografix.com/GPX/1/1 http://www.topografix.com/GPX/1/1/gpx.xsd" version="1.1" creator="VisuGPX - https://www.visugpx.com">
  <metadata>
    <name>Circuit Footing depuis le DIAP - 2012/01/19</name>
    <desc><![CDATA[Circuit plat, 60% chemin, 40% route - tracé du 19 Janvier 2012]]></desc>
  </metadata>
  <trk>
    <name><![CDATA[ACTIVE LOG: 19 JAN 2012 12:15]]></name>
    <trkseg>
      <trkpt lat="49.01346" lon="1.18809">
        <ele>119.82</ele>
        <time>2012-01-19T11:19:09Z</time>
      </trkpt>
      <trkpt lat="49.01375" lon="1.18811">
        <ele>120.78</ele>
        <time>2012-01-19T11:19:22Z</time>
      </trkpt>
      <trkpt lat="49.01378" lon="1.18811">
        <ele>120.3</ele>
        <time>2012-01-19T11:19:23Z</time>
      </trkpt>
      <trkpt lat="49.01391" lon="1.18818">
        <ele>120.78</ele>
        <time>2012-01-19T11:19:28Z</time>
      </trkpt>
      <trkpt lat="49.01415" lon="1.18857">
        <ele>122.22</ele>
        <time>2012-01-19T11:19:40Z</time>
      </trkpt>
      <trkpt lat="49.01435" lon="1.18903">
        <ele>122.22</ele>
        <time>2012-01-19T11:19:52Z</time>
      </trkpt>
      <trkpt lat="49.0146" lon="1.18957">
        <ele>121.74</ele>
        <time>2012-01-19T11:20:06Z</time>
      </trkpt>
      <trkpt lat="49.01467" lon="1.19004">
        <ele>122.71</ele>
        <time>2012-01-19T11:20:18Z</time>
      </trkpt>
      <trkpt lat="49.01443" lon="1.19043">
        <ele>122.71</ele>
        <time>2012-01-19T11:20:30Z</time>
      </trkpt>
      <trkpt lat="49.01413" lon="1.19085">
        <ele>122.71</ele>
        <time>2012-01-19T11:20:43Z</time>
      </trkpt>
      <trkpt lat="49.01399" lon="1.19106">
        <ele>124.15</ele>
        <time>2012-01-19T11:20:49Z</time>
      </trkpt>
      <trkpt lat="49.01356" lon="1.19149">
        <ele>121.74</ele>
        <time>2012-01-19T11:21:02Z</time>
      </trkpt>
      <trkpt lat="49.01327" lon="1.19185">
        <ele>121.26</ele>
        <time>2012-01-19T11:21:14Z</time>
      </trkpt>
      <trkpt lat="49.01302" lon="1.19218">
        <ele>120.3</ele>
        <time>2012-01-19T11:21:25Z</time>
      </trkpt>
      <trkpt lat="49.01274" lon="1.19254">
        <ele>119.82</ele>
        <time>2012-01-19T11:21:37Z</time>
      </trkpt>
      <trkpt lat="49.01246" lon="1.1929">
        <ele>120.3</ele>
        <time>2012-01-19T11:21:49Z</time>
      </trkpt>
      <trkpt lat="49.01225" lon="1.19307">
        <ele>120.3</ele>
        <time>2012-01-19T11:21:57Z</time>
      </trkpt>
      <trkpt lat="49.0119" lon="1.19319">
        <ele>118.38</ele>
        <time>2012-01-19T11:22:09Z</time>
      </trkpt>
      <trkpt lat="49.01155" lon="1.19306">
        <ele>117.42</ele>
        <time>2012-01-19T11:22:22Z</time>
      </trkpt>
      <trkpt lat="49.0112" lon="1.19302">
        <ele>118.38</ele>
        <time>2012-01-19T11:22:34Z</time>
      </trkpt>
      <trkpt lat="49.01086" lon="1.19302">
        <ele>117.9</ele>
        <time>2012-01-19T11:22:46Z</time>
      </trkpt>
      <trkpt lat="49.01046" lon="1.19309">
        <ele>117.42</ele>
        <time>2012-01-19T11:23:00Z</time>
      </trkpt>
      <trkpt lat="49.01008" lon="1.19309">
        <ele>116.94</ele>
        <time>2012-01-19T11:23:13Z</time>
      </trkpt>
      <trkpt lat="49.00974" lon="1.19301">
        <ele>116.94</ele>
        <time>2012-01-19T11:23:26Z</time>
      </trkpt>
      <trkpt lat="49.00935" lon="1.19288">
        <ele>116.46</ele>
        <time>2012-01-19T11:23:41Z</time>
      </trkpt>
      <trkpt lat="49.00908" lon="1.19281">
        <ele>116.94</ele>
        <time>2012-01-19T11:23:54Z</time>
      </trkpt>
      <trkpt lat="49.00874" lon="1.19274">
        <ele>116.46</ele>
        <time>2012-01-19T11:24:07Z</time>
      </trkpt>
      <trkpt lat="49.00831" lon="1.19284">
        <ele>116.94</ele>
        <time>2012-01-19T11:24:22Z</time>
      </trkpt>
      <trkpt lat="49.00792" lon="1.19293">
        <ele>115.98</ele>
        <time>2012-01-19T11:24:35Z</time>
      </trkpt>
      <trkpt lat="49.00767" lon="1.19313">
        <ele>116.46</ele>
        <time>2012-01-19T11:24:46Z</time>
      </trkpt>
      <trkpt lat="49.00757" lon="1.1936">
        <ele>116.46</ele>
        <time>2012-01-19T11:24:57Z</time>
      </trkpt>
      <trkpt lat="49.00737" lon="1.19416">
        <ele>116.94</ele>
        <time>2012-01-19T11:25:12Z</time>
      </trkpt>
      <trkpt lat="49.00717" lon="1.19464">
        <ele>117.42</ele>
        <time>2012-01-19T11:25:25Z</time>
      </trkpt>
      <trkpt lat="49.00716" lon="1.19515">
        <ele>117.9</ele>
        <time>2012-01-19T11:25:37Z</time>
      </trkpt>
      <trkpt lat="49.00695" lon="1.19554">
        <ele>118.38</ele>
        <time>2012-01-19T11:25:49Z</time>
      </trkpt>
      <trkpt lat="49.00656" lon="1.19561">
        <ele>116.94</ele>
        <time>2012-01-19T11:26:02Z</time>
      </trkpt>
      <trkpt lat="49.00626" lon="1.19581">
        <ele>116.46</ele>
        <time>2012-01-19T11:26:13Z</time>
      </trkpt>
      <trkpt lat="49.00596" lon="1.19636">
        <ele>116.46</ele>
        <time>2012-01-19T11:26:28Z</time>
      </trkpt>
      <trkpt lat="49.00575" lon="1.19682">
        <ele>116.46</ele>
        <time>2012-01-19T11:26:41Z</time>
      </trkpt>
      <trkpt lat="49.00557" lon="1.19717">
        <ele>115.98</ele>
        <time>2012-01-19T11:26:52Z</time>
      </trkpt>
      <trkpt lat="49.00544" lon="1.1972">
        <ele>116.46</ele>
        <time>2012-01-19T11:26:57Z</time>
      </trkpt>
      <trkpt lat="49.00509" lon="1.19686">
        <ele>115.5</ele>
        <time>2012-01-19T11:27:11Z</time>
      </trkpt>
      <trkpt lat="49.00469" lon="1.1967">
        <ele>115.98</ele>
        <time>2012-01-19T11:27:26Z</time>
      </trkpt>
      <trkpt lat="49.00434" lon="1.19655">
        <ele>115.98</ele>
        <time>2012-01-19T11:27:40Z</time>
      </trkpt>
      <trkpt lat="49.00399" lon="1.19659">
        <ele>116.46</ele>
        <time>2012-01-19T11:27:53Z</time>
      </trkpt>
      <trkpt lat="49.00357" lon="1.1968">
        <ele>116.46</ele>
        <time>2012-01-19T11:28:09Z</time>
      </trkpt>
      <trkpt lat="49.00321" lon="1.19697">
        <ele>116.46</ele>
        <time>2012-01-19T11:28:23Z</time>
      </trkpt>
      <trkpt lat="49.00277" lon="1.19719">
        <ele>116.94</ele>
        <time>2012-01-19T11:28:40Z</time>
      </trkpt>
      <trkpt lat="49.00237" lon="1.1974">
        <ele>117.42</ele>
        <time>2012-01-19T11:28:56Z</time>
      </trkpt>
      <trkpt lat="49.00186" lon="1.19768">
        <ele>117.42</ele>
        <time>2012-01-19T11:29:16Z</time>
      </trkpt>
      <trkpt lat="49.00143" lon="1.19789">
        <ele>117.9</ele>
        <time>2012-01-19T11:29:33Z</time>
      </trkpt>
      <trkpt lat="49.00105" lon="1.19809">
        <ele>117.42</ele>
        <time>2012-01-19T11:29:48Z</time>
      </trkpt>
      <trkpt lat="49.00064" lon="1.19829">
        <ele>117.9</ele>
        <time>2012-01-19T11:30:05Z</time>
      </trkpt>
      <trkpt lat="49.00024" lon="1.1985">
        <ele>117.9</ele>
        <time>2012-01-19T11:30:21Z</time>
      </trkpt>
      <trkpt lat="48.99985" lon="1.1987">
        <ele>118.38</ele>
        <time>2012-01-19T11:30:36Z</time>
      </trkpt>
      <trkpt lat="48.99947" lon="1.19888">
        <ele>117.9</ele>
        <time>2012-01-19T11:30:51Z</time>
      </trkpt>
      <trkpt lat="48.99914" lon="1.19906">
        <ele>117.42</ele>
        <time>2012-01-19T11:31:04Z</time>
      </trkpt>
      <trkpt lat="48.99881" lon="1.19923">
        <ele>117.42</ele>
        <time>2012-01-19T11:31:17Z</time>
      </trkpt>
      <trkpt lat="48.99848" lon="1.1994">
        <ele>116.94</ele>
        <time>2012-01-19T11:31:31Z</time>
      </trkpt>
      <trkpt lat="48.99811" lon="1.1996">
        <ele>118.38</ele>
        <time>2012-01-19T11:31:47Z</time>
      </trkpt>
      <trkpt lat="48.99774" lon="1.19979">
        <ele>118.38</ele>
        <time>2012-01-19T11:32:02Z</time>
      </trkpt>
      <trkpt lat="48.99739" lon="1.19998">
        <ele>118.38</ele>
        <time>2012-01-19T11:32:17Z</time>
      </trkpt>
      <trkpt lat="48.99705" lon="1.20017">
        <ele>118.38</ele>
        <time>2012-01-19T11:32:31Z</time>
      </trkpt>
      <trkpt lat="48.99667" lon="1.20039">
        <ele>118.86</ele>
        <time>2012-01-19T11:32:47Z</time>
      </trkpt>
      <trkpt lat="48.99628" lon="1.20059">
        <ele>119.34</ele>
        <time>2012-01-19T11:33:03Z</time>
      </trkpt>
      <trkpt lat="48.99585" lon="1.2008">
        <ele>119.34</ele>
        <time>2012-01-19T11:33:20Z</time>
      </trkpt>
      <trkpt lat="48.99545" lon="1.20098">
        <ele>119.82</ele>
        <time>2012-01-19T11:33:36Z</time>
      </trkpt>
      <trkpt lat="48.99509" lon="1.20117">
        <ele>120.3</ele>
        <time>2012-01-19T11:33:51Z</time>
      </trkpt>
      <trkpt lat="48.99479" lon="1.20132">
        <ele>119.82</ele>
        <time>2012-01-19T11:34:04Z</time>
      </trkpt>
      <trkpt lat="48.9945" lon="1.20146">
        <ele>119.82</ele>
        <time>2012-01-19T11:34:16Z</time>
      </trkpt>
      <trkpt lat="48.99436" lon="1.20102">
        <ele>119.82</ele>
        <time>2012-01-19T11:34:28Z</time>
      </trkpt>
      <trkpt lat="48.99433" lon="1.20057">
        <ele>120.3</ele>
        <time>2012-01-19T11:34:40Z</time>
      </trkpt>
      <trkpt lat="48.99428" lon="1.20013">
        <ele>120.78</ele>
        <time>2012-01-19T11:34:51Z</time>
      </trkpt>
      <trkpt lat="48.99425" lon="1.19991">
        <ele>120.3</ele>
        <time>2012-01-19T11:34:57Z</time>
      </trkpt>
      <trkpt lat="48.99409" lon="1.1998">
        <ele>120.3</ele>
        <time>2012-01-19T11:35:06Z</time>
      </trkpt>
      <trkpt lat="48.99401" lon="1.19981">
        <ele>120.3</ele>
        <time>2012-01-19T11:35:10Z</time>
      </trkpt>
      <trkpt lat="48.99391" lon="1.19986">
        <ele>120.3</ele>
        <time>2012-01-19T11:35:15Z</time>
      </trkpt>
      <trkpt lat="48.99378" lon="1.19982">
        <ele>120.3</ele>
        <time>2012-01-19T11:35:21Z</time>
      </trkpt>
      <trkpt lat="48.99368" lon="1.19981">
        <ele>120.3</ele>
        <time>2012-01-19T11:35:25Z</time>
      </trkpt>
      <trkpt lat="48.9936" lon="1.19978">
        <ele>120.78</ele>
        <time>2012-01-19T11:35:29Z</time>
      </trkpt>
      <trkpt lat="48.99352" lon="1.1993">
        <ele>121.26</ele>
        <time>2012-01-19T11:35:41Z</time>
      </trkpt>
      <trkpt lat="48.99347" lon="1.19909">
        <ele>121.26</ele>
        <time>2012-01-19T11:35:46Z</time>
      </trkpt>
      <trkpt lat="48.99343" lon="1.19891">
        <ele>121.26</ele>
        <time>2012-01-19T11:35:50Z</time>
      </trkpt>
      <trkpt lat="48.99336" lon="1.19846">
        <ele>121.26</ele>
        <time>2012-01-19T11:36:02Z</time>
      </trkpt>
      <trkpt lat="48.99333" lon="1.19796">
        <ele>120.78</ele>
        <time>2012-01-19T11:36:13Z</time>
      </trkpt>
      <trkpt lat="48.99337" lon="1.1976">
        <ele>120.78</ele>
        <time>2012-01-19T11:36:23Z</time>
      </trkpt>
      <trkpt lat="48.99335" lon="1.19741">
        <ele>120.78</ele>
        <time>2012-01-19T11:36:29Z</time>
      </trkpt>
      <trkpt lat="48.99333" lon="1.19702">
        <ele>120.78</ele>
        <time>2012-01-19T11:36:40Z</time>
      </trkpt>
      <trkpt lat="48.99325" lon="1.19657">
        <ele>120.78</ele>
        <time>2012-01-19T11:36:50Z</time>
      </trkpt>
      <trkpt lat="48.9931" lon="1.19619">
        <ele>120.78</ele>
        <time>2012-01-19T11:37:03Z</time>
      </trkpt>
      <trkpt lat="48.99296" lon="1.19594">
        <ele>120.3</ele>
        <time>2012-01-19T11:37:13Z</time>
      </trkpt>
      <trkpt lat="48.99283" lon="1.19576">
        <ele>120.3</ele>
        <time>2012-01-19T11:37:20Z</time>
      </trkpt>
      <trkpt lat="48.99276" lon="1.19572">
        <ele>120.3</ele>
        <time>2012-01-19T11:37:23Z</time>
      </trkpt>
      <trkpt lat="48.99259" lon="1.19564">
        <ele>120.3</ele>
        <time>2012-01-19T11:37:30Z</time>
      </trkpt>
      <trkpt lat="48.99251" lon="1.19563">
        <ele>119.82</ele>
        <time>2012-01-19T11:37:34Z</time>
      </trkpt>
      <trkpt lat="48.99238" lon="1.1958">
        <ele>118.86</ele>
        <time>2012-01-19T11:37:41Z</time>
      </trkpt>
      <trkpt lat="48.99227" lon="1.19589">
        <ele>118.38</ele>
        <time>2012-01-19T11:37:46Z</time>
      </trkpt>
      <trkpt lat="48.99201" lon="1.19624">
        <ele>116.46</ele>
        <time>2012-01-19T11:37:59Z</time>
      </trkpt>
      <trkpt lat="48.99177" lon="1.19661">
        <ele>115.98</ele>
        <time>2012-01-19T11:38:11Z</time>
      </trkpt>
      <trkpt lat="48.99146" lon="1.19702">
        <ele>116.46</ele>
        <time>2012-01-19T11:38:25Z</time>
      </trkpt>
      <trkpt lat="48.99116" lon="1.19737">
        <ele>116.46</ele>
        <time>2012-01-19T11:38:39Z</time>
      </trkpt>
      <trkpt lat="48.99089" lon="1.19769">
        <ele>116.94</ele>
        <time>2012-01-19T11:38:53Z</time>
      </trkpt>
      <trkpt lat="48.99062" lon="1.19798">
        <ele>117.9</ele>
        <time>2012-01-19T11:39:06Z</time>
      </trkpt>
      <trkpt lat="48.99033" lon="1.19835">
        <ele>120.3</ele>
        <time>2012-01-19T11:39:21Z</time>
      </trkpt>
      <trkpt lat="48.99019" lon="1.1985">
        <ele>121.26</ele>
        <time>2012-01-19T11:39:28Z</time>
      </trkpt>
      <trkpt lat="48.99001" lon="1.19879">
        <ele>122.22</ele>
        <time>2012-01-19T11:39:40Z</time>
      </trkpt>
      <trkpt lat="48.98984" lon="1.1991">
        <ele>122.71</ele>
        <time>2012-01-19T11:39:51Z</time>
      </trkpt>
      <trkpt lat="48.9896" lon="1.19951">
        <ele>123.19</ele>
        <time>2012-01-19T11:40:05Z</time>
      </trkpt>
      <trkpt lat="48.98934" lon="1.19991">
        <ele>123.19</ele>
        <time>2012-01-19T11:40:20Z</time>
      </trkpt>
      <trkpt lat="48.98912" lon="1.20024">
        <ele>123.19</ele>
        <time>2012-01-19T11:40:31Z</time>
      </trkpt>
      <trkpt lat="48.98889" lon="1.2006">
        <ele>122.71</ele>
        <time>2012-01-19T11:40:44Z</time>
      </trkpt>
      <trkpt lat="48.98862" lon="1.20106">
        <ele>121.74</ele>
        <time>2012-01-19T11:41:00Z</time>
      </trkpt>
      <trkpt lat="48.98843" lon="1.20142">
        <ele>122.71</ele>
        <time>2012-01-19T11:41:13Z</time>
      </trkpt>
      <trkpt lat="48.98839" lon="1.20151">
        <ele>122.71</ele>
        <time>2012-01-19T11:41:16Z</time>
      </trkpt>
      <trkpt lat="48.98811" lon="1.20191">
        <ele>124.63</ele>
        <time>2012-01-19T11:41:31Z</time>
      </trkpt>
      <trkpt lat="48.98789" lon="1.20226">
        <ele>124.63</ele>
        <time>2012-01-19T11:41:44Z</time>
      </trkpt>
      <trkpt lat="48.98766" lon="1.20258">
        <ele>125.11</ele>
        <time>2012-01-19T11:41:56Z</time>
      </trkpt>
      <trkpt lat="48.98738" lon="1.20296">
        <ele>125.59</ele>
        <time>2012-01-19T11:42:09Z</time>
      </trkpt>
      <trkpt lat="48.98716" lon="1.20328">
        <ele>125.11</ele>
        <time>2012-01-19T11:42:21Z</time>
      </trkpt>
      <trkpt lat="48.98694" lon="1.20361">
        <ele>125.11</ele>
        <time>2012-01-19T11:42:33Z</time>
      </trkpt>
      <trkpt lat="48.98674" lon="1.20392">
        <ele>126.07</ele>
        <time>2012-01-19T11:42:44Z</time>
      </trkpt>
      <trkpt lat="48.98642" lon="1.2043">
        <ele>127.03</ele>
        <time>2012-01-19T11:43:00Z</time>
      </trkpt>
      <trkpt lat="48.98611" lon="1.20474">
        <ele>128.47</ele>
        <time>2012-01-19T11:43:17Z</time>
      </trkpt>
      <trkpt lat="48.98585" lon="1.20511">
        <ele>128.95</ele>
        <time>2012-01-19T11:43:32Z</time>
      </trkpt>
      <trkpt lat="48.98559" lon="1.20548">
        <ele>129.92</ele>
        <time>2012-01-19T11:43:46Z</time>
      </trkpt>
      <trkpt lat="48.98531" lon="1.20588">
        <ele>130.88</ele>
        <time>2012-01-19T11:44:01Z</time>
      </trkpt>
      <trkpt lat="48.98502" lon="1.20629">
        <ele>130.4</ele>
        <time>2012-01-19T11:44:16Z</time>
      </trkpt>
      <trkpt lat="48.98475" lon="1.20669">
        <ele>130.88</ele>
        <time>2012-01-19T11:44:31Z</time>
      </trkpt>
      <trkpt lat="48.98446" lon="1.20712">
        <ele>130.88</ele>
        <time>2012-01-19T11:44:46Z</time>
      </trkpt>
      <trkpt lat="48.98423" lon="1.20747">
        <ele>130.88</ele>
        <time>2012-01-19T11:44:59Z</time>
      </trkpt>
      <trkpt lat="48.98395" lon="1.20788">
        <ele>129.92</ele>
        <time>2012-01-19T11:45:14Z</time>
      </trkpt>
      <trkpt lat="48.98365" lon="1.20831">
        <ele>129.43</ele>
        <time>2012-01-19T11:45:30Z</time>
      </trkpt>
      <trkpt lat="48.9834" lon="1.20864">
        <ele>129.92</ele>
        <time>2012-01-19T11:45:42Z</time>
      </trkpt>
      <trkpt lat="48.98311" lon="1.20907">
        <ele>128.47</ele>
        <time>2012-01-19T11:45:57Z</time>
      </trkpt>
      <trkpt lat="48.98279" lon="1.20955">
        <ele>127.99</ele>
        <time>2012-01-19T11:46:13Z</time>
      </trkpt>
      <trkpt lat="48.98264" lon="1.20976">
        <ele>127.99</ele>
        <time>2012-01-19T11:46:21Z</time>
      </trkpt>
      <trkpt lat="48.98279" lon="1.21018">
        <ele>127.51</ele>
        <time>2012-01-19T11:46:33Z</time>
      </trkpt>
      <trkpt lat="48.98298" lon="1.21063">
        <ele>127.51</ele>
        <time>2012-01-19T11:46:46Z</time>
      </trkpt>
      <trkpt lat="48.98318" lon="1.21111">
        <ele>126.55</ele>
        <time>2012-01-19T11:47:00Z</time>
      </trkpt>
      <trkpt lat="48.98337" lon="1.21161">
        <ele>126.07</ele>
        <time>2012-01-19T11:47:15Z</time>
      </trkpt>
      <trkpt lat="48.98355" lon="1.2121">
        <ele>125.59</ele>
        <time>2012-01-19T11:47:29Z</time>
      </trkpt>
      <trkpt lat="48.98377" lon="1.21267">
        <ele>125.11</ele>
        <time>2012-01-19T11:47:45Z</time>
      </trkpt>
      <trkpt lat="48.98394" lon="1.21319">
        <ele>124.63</ele>
        <time>2012-01-19T11:47:59Z</time>
      </trkpt>
      <trkpt lat="48.98401" lon="1.21376">
        <ele>124.15</ele>
        <time>2012-01-19T11:48:13Z</time>
      </trkpt>
      <trkpt lat="48.98405" lon="1.21423">
        <ele>124.63</ele>
        <time>2012-01-19T11:48:25Z</time>
      </trkpt>
      <trkpt lat="48.98403" lon="1.21477">
        <ele>124.15</ele>
        <time>2012-01-19T11:48:38Z</time>
      </trkpt>
      <trkpt lat="48.98402" lon="1.21522">
        <ele>123.67</ele>
        <time>2012-01-19T11:48:48Z</time>
      </trkpt>
      <trkpt lat="48.98399" lon="1.21578">
        <ele>123.67</ele>
        <time>2012-01-19T11:49:00Z</time>
      </trkpt>
      <trkpt lat="48.98405" lon="1.21639">
        <ele>124.15</ele>
        <time>2012-01-19T11:49:14Z</time>
      </trkpt>
      <trkpt lat="48.98416" lon="1.21675">
        <ele>124.63</ele>
        <time>2012-01-19T11:49:25Z</time>
      </trkpt>
      <trkpt lat="48.98429" lon="1.21719">
        <ele>124.15</ele>
        <time>2012-01-19T11:49:37Z</time>
      </trkpt>
      <trkpt lat="48.98457" lon="1.21735">
        <ele>124.63</ele>
        <time>2012-01-19T11:49:50Z</time>
      </trkpt>
      <trkpt lat="48.98488" lon="1.21742">
        <ele>124.63</ele>
        <time>2012-01-19T11:50:02Z</time>
      </trkpt>
      <trkpt lat="48.98517" lon="1.21748">
        <ele>125.11</ele>
        <time>2012-01-19T11:50:14Z</time>
      </trkpt>
      <trkpt lat="48.98556" lon="1.21758">
        <ele>125.11</ele>
        <time>2012-01-19T11:50:28Z</time>
      </trkpt>
      <trkpt lat="48.98585" lon="1.21762">
        <ele>124.63</ele>
        <time>2012-01-19T11:50:39Z</time>
      </trkpt>
      <trkpt lat="48.98627" lon="1.21778">
        <ele>123.67</ele>
        <time>2012-01-19T11:50:53Z</time>
      </trkpt>
      <trkpt lat="48.98667" lon="1.21796">
        <ele>122.22</ele>
        <time>2012-01-19T11:51:07Z</time>
      </trkpt>
      <trkpt lat="48.98708" lon="1.21813">
        <ele>121.26</ele>
        <time>2012-01-19T11:51:20Z</time>
      </trkpt>
      <trkpt lat="48.98747" lon="1.21836">
        <ele>120.78</ele>
        <time>2012-01-19T11:51:34Z</time>
      </trkpt>
      <trkpt lat="48.98782" lon="1.21852">
        <ele>120.3</ele>
        <time>2012-01-19T11:51:47Z</time>
      </trkpt>
      <trkpt lat="48.98812" lon="1.21858">
        <ele>119.82</ele>
        <time>2012-01-19T11:51:58Z</time>
      </trkpt>
      <trkpt lat="48.98845" lon="1.21856">
        <ele>119.34</ele>
        <time>2012-01-19T11:52:10Z</time>
      </trkpt>
      <trkpt lat="48.98878" lon="1.21848">
        <ele>118.38</ele>
        <time>2012-01-19T11:52:22Z</time>
      </trkpt>
      <trkpt lat="48.98912" lon="1.21853">
        <ele>117.42</ele>
        <time>2012-01-19T11:52:33Z</time>
      </trkpt>
      <trkpt lat="48.98941" lon="1.21849">
        <ele>115.5</ele>
        <time>2012-01-19T11:52:42Z</time>
      </trkpt>
      <trkpt lat="48.98953" lon="1.21839">
        <ele>114.53</ele>
        <time>2012-01-19T11:52:46Z</time>
      </trkpt>
      <trkpt lat="48.98991" lon="1.21806">
        <ele>111.65</ele>
        <time>2012-01-19T11:53:00Z</time>
      </trkpt>
      <trkpt lat="48.99021" lon="1.21778">
        <ele>113.09</ele>
        <time>2012-01-19T11:53:14Z</time>
      </trkpt>
      <trkpt lat="48.99047" lon="1.21767">
        <ele>115.98</ele>
        <time>2012-01-19T11:53:25Z</time>
      </trkpt>
      <trkpt lat="48.99082" lon="1.21748">
        <ele>117.9</ele>
        <time>2012-01-19T11:53:41Z</time>
      </trkpt>
      <trkpt lat="48.99116" lon="1.21719">
        <ele>119.82</ele>
        <time>2012-01-19T11:53:59Z</time>
      </trkpt>
      <trkpt lat="48.99156" lon="1.2171">
        <ele>120.78</ele>
        <time>2012-01-19T11:54:15Z</time>
      </trkpt>
      <trkpt lat="48.99162" lon="1.21732">
        <ele>120.78</ele>
        <time>2012-01-19T11:54:23Z</time>
      </trkpt>
      <trkpt lat="48.99147" lon="1.21785">
        <ele>119.82</ele>
        <time>2012-01-19T11:54:38Z</time>
      </trkpt>
      <trkpt lat="48.99152" lon="1.21837">
        <ele>119.82</ele>
        <time>2012-01-19T11:54:51Z</time>
      </trkpt>
      <trkpt lat="48.99153" lon="1.21841">
        <ele>119.82</ele>
        <time>2012-01-19T11:54:52Z</time>
      </trkpt>
      <trkpt lat="48.99165" lon="1.21843">
        <ele>119.34</ele>
        <time>2012-01-19T11:54:57Z</time>
      </trkpt>
      <trkpt lat="48.99199" lon="1.21808">
        <ele>118.86</ele>
        <time>2012-01-19T11:55:14Z</time>
      </trkpt>
      <trkpt lat="48.99237" lon="1.21782">
        <ele>118.86</ele>
        <time>2012-01-19T11:55:30Z</time>
      </trkpt>
      <trkpt lat="48.99269" lon="1.21775">
        <ele>118.38</ele>
        <time>2012-01-19T11:55:42Z</time>
      </trkpt>
      <trkpt lat="48.99302" lon="1.21805">
        <ele>119.82</ele>
        <time>2012-01-19T11:55:57Z</time>
      </trkpt>
      <trkpt lat="48.99334" lon="1.21844">
        <ele>119.34</ele>
        <time>2012-01-19T11:56:12Z</time>
      </trkpt>
      <trkpt lat="48.99364" lon="1.2186">
        <ele>117.9</ele>
        <time>2012-01-19T11:56:25Z</time>
      </trkpt>
      <trkpt lat="48.99395" lon="1.21834">
        <ele>116.46</ele>
        <time>2012-01-19T11:56:39Z</time>
      </trkpt>
      <trkpt lat="48.99427" lon="1.21812">
        <ele>115.98</ele>
        <time>2012-01-19T11:56:53Z</time>
      </trkpt>
      <trkpt lat="48.99465" lon="1.21786">
        <ele>117.42</ele>
        <time>2012-01-19T11:57:09Z</time>
      </trkpt>
      <trkpt lat="48.99493" lon="1.21758">
        <ele>118.38</ele>
        <time>2012-01-19T11:57:23Z</time>
      </trkpt>
      <trkpt lat="48.99522" lon="1.21741">
        <ele>118.86</ele>
        <time>2012-01-19T11:57:36Z</time>
      </trkpt>
      <trkpt lat="48.99552" lon="1.2173">
        <ele>119.82</ele>
        <time>2012-01-19T11:57:49Z</time>
      </trkpt>
      <trkpt lat="48.99583" lon="1.21731">
        <ele>120.78</ele>
        <time>2012-01-19T11:58:01Z</time>
      </trkpt>
      <trkpt lat="48.99613" lon="1.21738">
        <ele>120.78</ele>
        <time>2012-01-19T11:58:12Z</time>
      </trkpt>
      <trkpt lat="48.99651" lon="1.21743">
        <ele>122.22</ele>
        <time>2012-01-19T11:58:26Z</time>
      </trkpt>
      <trkpt lat="48.99654" lon="1.21742">
        <ele>122.22</ele>
        <time>2012-01-19T11:58:27Z</time>
      </trkpt>
      <trkpt lat="48.99684" lon="1.21711">
        <ele>123.19</ele>
        <time>2012-01-19T11:58:42Z</time>
      </trkpt>
      <trkpt lat="48.99716" lon="1.21689">
        <ele>123.19</ele>
        <time>2012-01-19T11:58:55Z</time>
      </trkpt>
      <trkpt lat="48.99749" lon="1.21669">
        <ele>124.63</ele>
        <time>2012-01-19T11:59:08Z</time>
      </trkpt>
      <trkpt lat="48.99775" lon="1.21646">
        <ele>123.67</ele>
        <time>2012-01-19T11:59:19Z</time>
      </trkpt>
      <trkpt lat="48.99809" lon="1.21626">
        <ele>123.19</ele>
        <time>2012-01-19T11:59:33Z</time>
      </trkpt>
      <trkpt lat="48.99839" lon="1.21601">
        <ele>123.19</ele>
        <time>2012-01-19T11:59:46Z</time>
      </trkpt>
      <trkpt lat="48.99844" lon="1.2157">
        <ele>123.19</ele>
        <time>2012-01-19T11:59:55Z</time>
      </trkpt>
      <trkpt lat="48.99832" lon="1.21533">
        <ele>122.22</ele>
        <time>2012-01-19T12:00:07Z</time>
      </trkpt>
      <trkpt lat="48.99824" lon="1.21498">
        <ele>121.74</ele>
        <time>2012-01-19T12:00:17Z</time>
      </trkpt>
      <trkpt lat="48.99814" lon="1.2146">
        <ele>120.78</ele>
        <time>2012-01-19T12:00:27Z</time>
      </trkpt>
      <trkpt lat="48.99801" lon="1.2141">
        <ele>119.82</ele>
        <time>2012-01-19T12:00:38Z</time>
      </trkpt>
      <trkpt lat="48.99822" lon="1.21371">
        <ele>118.38</ele>
        <time>2012-01-19T12:00:48Z</time>
      </trkpt>
      <trkpt lat="48.9985" lon="1.2133">
        <ele>118.38</ele>
        <time>2012-01-19T12:01:02Z</time>
      </trkpt>
      <trkpt lat="48.99877" lon="1.21292">
        <ele>117.9</ele>
        <time>2012-01-19T12:01:16Z</time>
      </trkpt>
      <trkpt lat="48.99905" lon="1.21252">
        <ele>119.34</ele>
        <time>2012-01-19T12:01:30Z</time>
      </trkpt>
      <trkpt lat="48.99931" lon="1.2122">
        <ele>118.38</ele>
        <time>2012-01-19T12:01:43Z</time>
      </trkpt>
      <trkpt lat="48.99959" lon="1.21183">
        <ele>117.9</ele>
        <time>2012-01-19T12:01:56Z</time>
      </trkpt>
      <trkpt lat="48.99986" lon="1.21142">
        <ele>116.94</ele>
        <time>2012-01-19T12:02:08Z</time>
      </trkpt>
      <trkpt lat="49.00007" lon="1.21111">
        <ele>116.94</ele>
        <time>2012-01-19T12:02:19Z</time>
      </trkpt>
      <trkpt lat="49.00021" lon="1.21093">
        <ele>117.42</ele>
        <time>2012-01-19T12:02:26Z</time>
      </trkpt>
      <trkpt lat="49.00031" lon="1.21081">
        <ele>117.9</ele>
        <time>2012-01-19T12:02:31Z</time>
      </trkpt>
      <trkpt lat="49.00061" lon="1.21046">
        <ele>118.38</ele>
        <time>2012-01-19T12:02:45Z</time>
      </trkpt>
      <trkpt lat="49.00085" lon="1.21013">
        <ele>118.86</ele>
        <time>2012-01-19T12:02:58Z</time>
      </trkpt>
      <trkpt lat="49.00111" lon="1.20975">
        <ele>119.34</ele>
        <time>2012-01-19T12:03:12Z</time>
      </trkpt>
      <trkpt lat="49.00125" lon="1.20956">
        <ele>118.86</ele>
        <time>2012-01-19T12:03:20Z</time>
      </trkpt>
      <trkpt lat="49.0013" lon="1.20938">
        <ele>119.34</ele>
        <time>2012-01-19T12:03:27Z</time>
      </trkpt>
      <trkpt lat="49.00135" lon="1.20921">
        <ele>119.82</ele>
        <time>2012-01-19T12:03:32Z</time>
      </trkpt>
      <trkpt lat="49.0015" lon="1.20867">
        <ele>120.3</ele>
        <time>2012-01-19T12:03:46Z</time>
      </trkpt>
      <trkpt lat="49.0016" lon="1.20831">
        <ele>119.82</ele>
        <time>2012-01-19T12:03:56Z</time>
      </trkpt>
      <trkpt lat="49.00175" lon="1.20786">
        <ele>119.82</ele>
        <time>2012-01-19T12:04:09Z</time>
      </trkpt>
      <trkpt lat="49.0019" lon="1.20735">
        <ele>119.34</ele>
        <time>2012-01-19T12:04:24Z</time>
      </trkpt>
      <trkpt lat="49.00208" lon="1.20695">
        <ele>119.82</ele>
        <time>2012-01-19T12:04:37Z</time>
      </trkpt>
      <trkpt lat="49.00228" lon="1.20657">
        <ele>119.34</ele>
        <time>2012-01-19T12:04:50Z</time>
      </trkpt>
      <trkpt lat="49.0025" lon="1.20618">
        <ele>119.82</ele>
        <time>2012-01-19T12:05:03Z</time>
      </trkpt>
      <trkpt lat="49.0028" lon="1.20577">
        <ele>120.3</ele>
        <time>2012-01-19T12:05:19Z</time>
      </trkpt>
      <trkpt lat="49.0031" lon="1.20549">
        <ele>119.82</ele>
        <time>2012-01-19T12:05:33Z</time>
      </trkpt>
      <trkpt lat="49.00338" lon="1.20524">
        <ele>119.82</ele>
        <time>2012-01-19T12:05:46Z</time>
      </trkpt>
      <trkpt lat="49.00367" lon="1.20496">
        <ele>119.82</ele>
        <time>2012-01-19T12:05:59Z</time>
      </trkpt>
      <trkpt lat="49.004" lon="1.20464">
        <ele>120.78</ele>
        <time>2012-01-19T12:06:14Z</time>
      </trkpt>
      <trkpt lat="49.00435" lon="1.20436">
        <ele>120.78</ele>
        <time>2012-01-19T12:06:29Z</time>
      </trkpt>
      <trkpt lat="49.00464" lon="1.20409">
        <ele>120.78</ele>
        <time>2012-01-19T12:06:42Z</time>
      </trkpt>
      <trkpt lat="49.00489" lon="1.2038">
        <ele>120.78</ele>
        <time>2012-01-19T12:06:54Z</time>
      </trkpt>
      <trkpt lat="49.00511" lon="1.20357">
        <ele>122.22</ele>
        <time>2012-01-19T12:07:05Z</time>
      </trkpt>
      <trkpt lat="49.00514" lon="1.20342">
        <ele>122.71</ele>
        <time>2012-01-19T12:07:10Z</time>
      </trkpt>
      <trkpt lat="49.00508" lon="1.20281">
        <ele>123.19</ele>
        <time>2012-01-19T12:07:26Z</time>
      </trkpt>
      <trkpt lat="49.0051" lon="1.20219">
        <ele>120.3</ele>
        <time>2012-01-19T12:07:41Z</time>
      </trkpt>
      <trkpt lat="49.00512" lon="1.20155">
        <ele>119.82</ele>
        <time>2012-01-19T12:07:57Z</time>
      </trkpt>
      <trkpt lat="49.00514" lon="1.20092">
        <ele>119.34</ele>
        <time>2012-01-19T12:08:13Z</time>
      </trkpt>
      <trkpt lat="49.00515" lon="1.20032">
        <ele>120.3</ele>
        <time>2012-01-19T12:08:28Z</time>
      </trkpt>
      <trkpt lat="49.00515" lon="1.19974">
        <ele>120.3</ele>
        <time>2012-01-19T12:08:43Z</time>
      </trkpt>
      <trkpt lat="49.00514" lon="1.1991">
        <ele>119.34</ele>
        <time>2012-01-19T12:08:59Z</time>
      </trkpt>
      <trkpt lat="49.00512" lon="1.1985">
        <ele>119.82</ele>
        <time>2012-01-19T12:09:15Z</time>
      </trkpt>
      <trkpt lat="49.00519" lon="1.19802">
        <ele>117.9</ele>
        <time>2012-01-19T12:09:27Z</time>
      </trkpt>
      <trkpt lat="49.0054" lon="1.19751">
        <ele>117.42</ele>
        <time>2012-01-19T12:09:42Z</time>
      </trkpt>
      <trkpt lat="49.00558" lon="1.19707">
        <ele>117.42</ele>
        <time>2012-01-19T12:09:55Z</time>
      </trkpt>
      <trkpt lat="49.0058" lon="1.19658">
        <ele>117.9</ele>
        <time>2012-01-19T12:10:09Z</time>
      </trkpt>
      <trkpt lat="49.00604" lon="1.19607">
        <ele>117.42</ele>
        <time>2012-01-19T12:10:25Z</time>
      </trkpt>
      <trkpt lat="49.00631" lon="1.19568">
        <ele>116.94</ele>
        <time>2012-01-19T12:10:39Z</time>
      </trkpt>
      <trkpt lat="49.00659" lon="1.19551">
        <ele>117.9</ele>
        <time>2012-01-19T12:10:50Z</time>
      </trkpt>
      <trkpt lat="49.00664" lon="1.19551">
        <ele>118.38</ele>
        <time>2012-01-19T12:10:52Z</time>
      </trkpt>
      <trkpt lat="49.00696" lon="1.19541">
        <ele>119.82</ele>
        <time>2012-01-19T12:11:04Z</time>
      </trkpt>
      <trkpt lat="49.00705" lon="1.19526">
        <ele>119.82</ele>
        <time>2012-01-19T12:11:09Z</time>
      </trkpt>
      <trkpt lat="49.00709" lon="1.1951">
        <ele>118.86</ele>
        <time>2012-01-19T12:11:13Z</time>
      </trkpt>
      <trkpt lat="49.00712" lon="1.19451">
        <ele>118.86</ele>
        <time>2012-01-19T12:11:27Z</time>
      </trkpt>
      <trkpt lat="49.00731" lon="1.1941">
        <ele>117.9</ele>
        <time>2012-01-19T12:11:39Z</time>
      </trkpt>
      <trkpt lat="49.00747" lon="1.19359">
        <ele>117.42</ele>
        <time>2012-01-19T12:11:53Z</time>
      </trkpt>
      <trkpt lat="49.00764" lon="1.19313">
        <ele>116.94</ele>
        <time>2012-01-19T12:12:06Z</time>
      </trkpt>
      <trkpt lat="49.00787" lon="1.19288">
        <ele>117.42</ele>
        <time>2012-01-19T12:12:17Z</time>
      </trkpt>
      <trkpt lat="49.00826" lon="1.19272">
        <ele>118.38</ele>
        <time>2012-01-19T12:12:32Z</time>
      </trkpt>
      <trkpt lat="49.00856" lon="1.19266">
        <ele>118.38</ele>
        <time>2012-01-19T12:12:43Z</time>
      </trkpt>
      <trkpt lat="49.00892" lon="1.19268">
        <ele>118.38</ele>
        <time>2012-01-19T12:12:55Z</time>
      </trkpt>
      <trkpt lat="49.00939" lon="1.19276">
        <ele>117.9</ele>
        <time>2012-01-19T12:13:11Z</time>
      </trkpt>
      <trkpt lat="49.00978" lon="1.19285">
        <ele>117.42</ele>
        <time>2012-01-19T12:13:25Z</time>
      </trkpt>
      <trkpt lat="49.01019" lon="1.19294">
        <ele>118.38</ele>
        <time>2012-01-19T12:13:39Z</time>
      </trkpt>
      <trkpt lat="49.01056" lon="1.19295">
        <ele>118.38</ele>
        <time>2012-01-19T12:13:53Z</time>
      </trkpt>
      <trkpt lat="49.01093" lon="1.1929">
        <ele>117.9</ele>
        <time>2012-01-19T12:14:07Z</time>
      </trkpt>
      <trkpt lat="49.01134" lon="1.19288">
        <ele>118.86</ele>
        <time>2012-01-19T12:14:22Z</time>
      </trkpt>
      <trkpt lat="49.01169" lon="1.1929">
        <ele>119.34</ele>
        <time>2012-01-19T12:14:34Z</time>
      </trkpt>
      <trkpt lat="49.012" lon="1.19301">
        <ele>119.34</ele>
        <time>2012-01-19T12:14:45Z</time>
      </trkpt>
      <trkpt lat="49.01238" lon="1.19299">
        <ele>119.82</ele>
        <time>2012-01-19T12:14:59Z</time>
      </trkpt>
      <trkpt lat="49.01259" lon="1.19273">
        <ele>120.3</ele>
        <time>2012-01-19T12:15:09Z</time>
      </trkpt>
      <trkpt lat="49.01293" lon="1.19235">
        <ele>119.34</ele>
        <time>2012-01-19T12:15:24Z</time>
      </trkpt>
      <trkpt lat="49.01322" lon="1.19193">
        <ele>119.82</ele>
        <time>2012-01-19T12:15:39Z</time>
      </trkpt>
      <trkpt lat="49.01352" lon="1.19154">
        <ele>120.78</ele>
        <time>2012-01-19T12:15:53Z</time>
      </trkpt>
      <trkpt lat="49.01382" lon="1.1912">
        <ele>122.22</ele>
        <time>2012-01-19T12:16:06Z</time>
      </trkpt>
      <trkpt lat="49.01391" lon="1.19109">
        <ele>122.22</ele>
        <time>2012-01-19T12:16:10Z</time>
      </trkpt>
      <trkpt lat="49.01399" lon="1.19094">
        <ele>122.22</ele>
        <time>2012-01-19T12:16:15Z</time>
      </trkpt>
      <trkpt lat="49.01411" lon="1.19067">
        <ele>121.74</ele>
        <time>2012-01-19T12:16:24Z</time>
      </trkpt>
      <trkpt lat="49.01443" lon="1.19028">
        <ele>122.22</ele>
        <time>2012-01-19T12:16:37Z</time>
      </trkpt>
      <trkpt lat="49.01467" lon="1.18993">
        <ele>121.74</ele>
        <time>2012-01-19T12:16:49Z</time>
      </trkpt>
      <trkpt lat="49.01458" lon="1.18954">
        <ele>121.74</ele>
        <time>2012-01-19T12:16:59Z</time>
      </trkpt>
      <trkpt lat="49.01443" lon="1.18922">
        <ele>121.74</ele>
        <time>2012-01-19T12:17:10Z</time>
      </trkpt>
      <trkpt lat="49.01421" lon="1.18872">
        <ele>121.26</ele>
        <time>2012-01-19T12:17:24Z</time>
      </trkpt>
      <trkpt lat="49.014" lon="1.1883">
        <ele>120.78</ele>
        <time>2012-01-19T12:17:35Z</time>
      </trkpt>
      <trkpt lat="49.01372" lon="1.18809">
        <ele>120.78</ele>
        <time>2012-01-19T12:17:46Z</time>
      </trkpt>
      <trkpt lat="49.01348" lon="1.18811">
        <ele>120.3</ele>
        <time>2012-01-19T12:17:56Z</time>
      </trkpt>
    </trkseg>
  </trk>
</gpx>